Time;durP1;ratioP1;P1;durP2;ratioP2;P2;SDS_P1;SDS_P2;PMS_P1;PMS_P2;Temp;Humidity;BMP_temperature;BMP_pressure;BME280_temperature;BME280_humidity;BME280_pressure;Samples;Min_cycle;Max_cycle;Signal;HPM_P1;HPM_P2
2022/12/05 00:01:29;;;;;;;3.63;0.90;;;34.60;47.40;;;;;;4997460;28;20040;-64
2022/12/05 00:04:00;;;;;;;6.63;2.28;;;34.40;44.90;;;;;;5008901;28;20454;-65
2022/12/05 00:06:29;;;;;;;4.63;1.23;;;34.10;48.70;;;;;;5011942;28;20014;-63
2022/12/05 00:08:57;;;;;;;4.28;1.00;;;34.50;45.80;;;;;;5012523;28;20037;-64
2022/12/05 00:11:28;;;;;;;5.07;0.85;;;34.80;46.50;;;;;;5010249;28;20026;-65
2022/12/05 00:13:57;;;;;;;4.40;1.20;;;35.20;45.70;;;;;;5008704;28;20032;-65
2022/12/05 00:16:26;;;;;;;6.07;1.02;;;35.60;48.10;;;;;;5010385;28;20483;-64
2022/12/05 00:18:54;;;;;;;2.97;1.27;;;35.70;46.10;;;;;;5014742;28;20025;-64
2022/12/05 00:21:24;;;;;;;9.85;1.83;;;36.00;43.70;;;;;;5017508;28;20060;-64
2022/12/05 00:23:54;;;;;;;2.50;1.13;;;35.50;46.70;;;;;;5010400;28;20026;-65
2022/12/05 00:26:22;;;;;;;2.63;0.80;;;35.80;46.10;;;;;;5007607;28;20096;-65
2022/12/05 00:28:49;;;;;;;4.35;1.15;;;36.20;45.30;;;;;;5016473;28;20033;-64
2022/12/05 00:31:21;;;;;;;5.20;0.98;;;36.50;45.40;;;;;;5012439;28;20495;-65
2022/12/05 00:33:49;;;;;;;6.97;1.20;;;36.60;43.40;;;;;;5007993;28;20025;-64
2022/12/05 00:36:20;;;;;;;3.97;1.58;;;36.60;47.00;;;;;;5011935;28;20140;-64
2022/12/05 00:38:49;;;;;;;2.67;0.93;;;36.90;45.10;;;;;;5008851;28;20088;-63
2022/12/05 00:41:19;;;;;;;5.85;0.93;;;37.30;45.40;;;;;;5010924;28;20026;-64
2022/12/05 00:43:47;;;;;;;2.85;0.93;;;37.50;43.30;;;;;;5011387;28;20034;-65
2022/12/05 00:46:17;;;;;;;6.35;0.90;;;37.00;43.90;;;;;;5009887;28;20072;-65
2022/12/05 00:48:44;;;;;;;10.02;1.20;;;36.90;45.60;;;;;;5010469;28;20392;-64
2022/12/05 00:51:13;;;;;;;4.88;1.48;;;36.80;45.10;;;;;;5012414;28;20017;-64
2022/12/05 00:53:41;;;;;;;2.10;0.90;;;36.90;44.30;;;;;;5011349;28;20116;-65
2022/12/05 00:56:11;;;;;;;2.90;1.20;;;37.20;46.60;;;;;;5003622;28;20026;-65
2022/12/05 00:58:39;;;;;;;3.10;1.00;;;37.20;46.00;;;;;;5008844;28;20034;-65
2022/12/05 01:01:12;;;;;;;3.15;0.85;;;37.30;42.90;;;;;;5018296;28;20033;-64
2022/12/05 01:03:40;;;;;;;4.47;1.05;;;37.40;45.10;;;;;;5009334;28;20032;-65
2022/12/05 01:06:09;;;;;;;5.00;0.88;;;37.80;45.60;;;;;;5009997;28;20054;-64
2022/12/05 01:08:37;;;;;;;2.25;0.93;;;37.50;42.10;;;;;;5010885;28;20025;-64
2022/12/05 01:11:06;;;;;;;2.90;1.33;;;36.70;45.00;;;;;;5021462;28;20049;-65
2022/12/05 01:13:34;;;;;;;3.20;0.95;;;36.90;44.00;;;;;;5015882;28;20022;-65
2022/12/05 01:16:02;;;;;;;2.58;0.88;;;37.00;42.20;;;;;;5012281;28;20120;-66
2022/12/05 01:18:30;;;;;;;4.47;1.00;;;36.70;44.30;;;;;;5012616;28;20116;-65
2022/12/05 01:20:58;;;;;;;2.30;0.98;;;36.90;45.80;;;;;;5026712;28;20017;-65
2022/12/05 01:23:25;;;;;;;2.88;0.80;;;36.90;43.50;;;;;;5009393;28;20069;-65
2022/12/05 01:25:52;;;;;;;2.45;0.75;;;36.30;44.00;;;;;;5011482;28;20030;-66
2022/12/05 01:28:20;;;;;;;2.15;1.02;;;36.20;43.20;;;;;;5012823;28;20033;-65
2022/12/05 01:30:49;;;;;;;3.92;1.10;;;36.30;46.70;;;;;;5010963;28;20026;-65
2022/12/05 01:33:17;;;;;;;3.72;1.38;;;36.60;45.30;;;;;;5021451;28;20053;-65
2022/12/05 01:35:45;;;;;;;3.08;1.42;;;36.10;43.80;;;;;;5000853;28;20057;-66
2022/12/05 01:38:12;;;;;;;3.83;1.00;;;36.10;44.90;;;;;;5007330;28;20018;-65
2022/12/05 01:40:40;;;;;;;4.30;1.17;;;36.70;47.30;;;;;;5011309;28;20088;-66
2022/12/05 01:43:16;;;;;;;3.80;1.23;;;37.10;45.10;;;;;;5006492;28;20472;-65
2022/12/05 01:45:45;;;;;;;2.67;1.00;;;37.60;44.90;;;;;;5011566;28;20056;-65
2022/12/05 01:48:20;;;;;;;2.08;0.70;;;37.90;43.30;;;;;;5009604;28;20030;-65
2022/12/05 01:50:49;;;;;;;3.10;0.60;;;38.30;45.90;;;;;;5010772;28;20029;-65
2022/12/05 01:53:17;;;;;;;5.00;0.80;;;38.30;40.50;;;;;;5016372;28;20105;-65
2022/12/05 01:55:47;;;;;;;2.50;0.80;;;38.10;42.60;;;;;;5010894;28;20046;-66
2022/12/05 01:58:14;;;;;;;2.30;0.88;;;38.30;45.50;;;;;;5012092;28;20053;-66
2022/12/05 02:00:42;;;;;;;3.17;1.27;;;38.50;44.10;;;;;;5013015;28;20022;-65
2022/12/05 02:03:13;;;;;;;2.60;1.20;;;38.50;44.90;;;;;;5013356;28;20379;-65
2022/12/05 02:05:41;;;;;;;4.60;1.17;;;38.50;44.30;;;;;;5014295;28;20021;-65
2022/12/05 02:08:10;;;;;;;6.30;1.70;;;38.60;44.10;;;;;;5008423;28;20076;-65
2022/12/05 02:10:47;;;;;;;3.90;1.08;;;38.70;41.60;;;;;;5010645;28;20022;-65
2022/12/05 02:13:50;;;;;;;5.05;1.23;;;38.90;43.40;;;;;;5009251;28;20030;-65
2022/12/05 02:16:31;;;;;;;5.05;1.92;;;38.90;41.30;;;;;;5013756;28;20025;-65
2022/12/05 02:19:35;;;;;;;5.07;1.40;;;38.60;42.70;;;;;;5023854;28;20026;-66
2022/12/05 02:22:20;;;;;;;2.63;1.30;;;38.70;42.90;;;;;;5016302;28;20042;-66
2022/12/05 02:24:53;;;;;;;2.72;1.17;;;38.70;42.30;;;;;;5018889;28;20022;-65
2022/12/05 02:27:50;;;;;;;3.05;1.13;;;39.00;41.80;;;;;;5010836;28;20398;-65
2022/12/05 02:30:23;;;;;;;6.85;1.38;;;39.20;43.20;;;;;;5022831;28;20032;-65
2022/12/05 02:33:01;;;;;;;2.97;0.90;;;39.50;41.20;;;;;;5010088;28;20423;-65
2022/12/05 02:35:45;;;;;;;2.17;1.05;;;39.20;40.50;;;;;;5011114;28;20049;-65
2022/12/05 02:38:21;;;;;;;3.45;1.20;;;39.40;41.90;;;;;;5009803;28;20044;-65
2022/12/05 02:41:22;;;;;;;4.80;1.40;;;39.40;41.10;;;;;;5008081;28;20040;-65
2022/12/05 02:44:10;;;;;;;6.25;1.50;;;38.50;41.30;;;;;;5009915;28;20077;-65
2022/12/05 02:46:40;;;;;;;3.63;1.30;;;38.50;42.70;;;;;;5007715;28;20021;-64
2022/12/05 02:49:13;;;;;;;4.65;1.00;;;38.90;43.30;;;;;;5009078;28;20022;-63
2022/12/05 02:51:43;;;;;;;2.22;0.90;;;39.10;43.50;;;;;;5011218;28;20584;-63
2022/12/05 02:54:17;;;;;;;2.70;1.00;;;39.40;41.80;;;;;;5011840;28;20116;-65
2022/12/05 02:56:46;;;;;;;2.20;0.80;;;39.60;39.40;;;;;;5014684;28;20030;-66
2022/12/05 02:59:13;;;;;;;2.75;0.90;;;39.60;40.20;;;;;;5009553;28;20021;-65
2022/12/05 03:01:44;;;;;;;4.15;1.10;;;39.30;41.40;;;;;;5008222;28;20046;-65
2022/12/05 03:04:13;;;;;;;3.60;1.00;;;39.00;41.30;;;;;;5010054;28;20025;-64
2022/12/05 03:06:46;;;;;;;3.28;1.05;;;39.10;42.30;;;;;;5012488;28;20061;-65
2022/12/05 03:09:14;;;;;;;;;;;39.60;43.00;;;;;;5002847;28;20022;-64
2022/12/05 03:11:50;;;;;;;4.90;0.90;;;39.90;41.20;;;;;;5015500;28;19905;-64
2022/12/05 03:14:28;;;;;;;2.58;0.80;;;40.00;40.60;;;;;;4998893;28;20529;-65
2022/12/05 03:17:00;;;;;;;2.83;1.17;;;40.00;38.30;;;;;;5010724;28;20446;-64
2022/12/05 03:19:44;;;;;;;5.38;1.40;;;39.90;40.50;;;;;;5007717;28;20032;-65
2022/12/05 03:22:37;;;;;;;3.45;0.90;;;40.10;41.60;;;;;;5007679;28;20398;-65
2022/12/05 03:25:05;;;;;;;3.03;0.70;;;40.30;41.20;;;;;;5002092;28;20040;-64
2022/12/05 03:27:49;;;;;;;2.30;1.08;;;39.30;37.40;;;;;;5007886;28;20038;-65
2022/12/05 03:30:20;;;;;;;6.88;1.00;;;39.20;40.40;;;;;;5019410;28;20022;-64
2022/12/05 03:33:10;;;;;;;5.50;0.98;;;39.00;40.10;;;;;;5008023;28;20386;-65
2022/12/05 03:36:05;;;;;;;4.70;1.02;;;39.00;40.20;;;;;;5004847;28;20044;-65
2022/12/05 03:38:45;;;;;;;6.30;1.27;;;39.00;40.10;;;;;;5003822;28;20105;-66
2022/12/05 03:41:24;;;;;;;5.78;1.15;;;39.40;39.40;;;;;;5007466;28;20053;-65
2022/12/05 03:44:08;;;;;;;3.78;0.82;;;39.30;39.80;;;;;;5008952;28;20152;-66
2022/12/05 03:46:39;;;;;;;3.17;0.80;;;39.10;39.80;;;;;;5010080;28;20045;-64
2022/12/05 03:49:20;;;;;;;6.43;0.73;;;39.00;41.50;;;;;;5009614;28;20044;-65
2022/12/05 03:51:59;;;;;;;1.23;0.80;;;39.10;41.30;;;;;;5014078;28;20045;-64
2022/12/05 03:54:42;;;;;;;6.35;1.13;;;39.10;40.60;;;;;;5009912;28;20023;-64
2022/12/05 03:57:21;;;;;;;3.35;0.68;;;39.40;39.60;;;;;;5013896;28;20025;-64
2022/12/05 03:59:55;;;;;;;5.75;1.10;;;39.30;37.80;;;;;;5011650;28;20030;-65
2022/12/05 04:02:44;;;;;;;4.65;1.20;;;39.00;38.50;;;;;;5007863;28;20037;-65
2022/12/05 04:05:39;;;;;;;2.70;1.20;;;38.90;38.40;;;;;;5011574;28;20389;-64
2022/12/05 04:08:36;;;;;;;1.88;0.80;;;38.70;40.00;;;;;;4996659;28;20702;-64
2022/12/05 04:11:09;;;;;;;3.38;1.00;;;38.30;40.60;;;;;;5007039;28;20022;-64
2022/12/05 04:14:02;;;;;;;1.73;0.90;;;37.90;40.20;;;;;;5008054;28;20022;-64
2022/12/05 04:22:42;;;;;;;4.60;1.05;;;36.40;41.00;;;;;;5006786;28;20450;-64
2022/12/05 04:28:25;;;;;;;3.60;0.82;;;36.00;41.00;;;;;;5007602;28;20075;-63
2022/12/05 04:30:59;;;;;;;1.77;0.80;;;35.70;41.30;;;;;;5020812;28;20038;-63
2022/12/05 04:33:46;;;;;;;2.80;1.00;;;35.60;41.50;;;;;;5013558;28;20036;-64
2022/12/05 04:36:20;;;;;;;4.28;1.08;;;35.30;42.40;;;;;;5011601;28;20080;-63
2022/12/05 04:39:10;;;;;;;4.80;1.45;;;35.00;43.40;;;;;;5013592;28;20407;-62
2022/12/05 04:41:42;;;;;;;14.63;2.20;;;34.20;48.60;;;;;;4999622;28;20416;-64
2022/12/05 04:44:13;;;;;;;15.20;2.00;;;33.20;54.90;;;;;;5007345;28;20037;-66
2022/12/05 04:46:43;;;;;;;14.75;3.08;;;31.20;61.00;;;;;;5023889;28;20415;-63
2022/12/05 04:49:15;;;;;;;12.25;2.40;;;29.00;71.70;;;;;;5007722;28;20083;-65
2022/12/05 04:51:44;;;;;;;5.20;1.92;;;27.40;83.40;;;;;;5006427;28;20022;-66
2022/12/05 04:54:25;;;;;;;8.45;2.53;;;26.10;85.70;;;;;;5008159;28;20125;-65
2022/12/05 04:57:00;;;;;;;4.70;1.10;;;24.90;96.80;;;;;;5002163;28;20026;-66
2022/12/05 04:59:27;;;;;;;2.50;1.30;;;24.60;95.70;;;;;;5014917;28;20025;-65
2022/12/05 05:02:02;;;;;;;4.22;1.17;;;24.70;92.10;;;;;;5009359;28;20485;-65
2022/12/05 05:04:41;;;;;;;4.85;1.80;;;25.20;92.60;;;;;;5014042;28;20522;-64
2022/12/05 05:07:13;;;;;;;3.92;0.90;;;25.80;91.30;;;;;;5013846;28;20033;-66
2022/12/05 05:09:40;;;;;;;2.50;0.90;;;26.50;87.90;;;;;;5026479;28;20039;-64
2022/12/05 05:12:08;;;;;;;6.88;0.77;;;27.20;82.50;;;;;;5017151;28;20060;-64
2022/12/05 05:14:36;;;;;;;1.80;0.88;;;27.70;77.30;;;;;;5018027;28;20502;-64
2022/12/05 05:17:03;;;;;;;3.75;0.98;;;28.30;77.20;;;;;;5015391;28;20022;-66
2022/12/05 05:19:31;;;;;;;2.10;0.88;;;28.80;71.00;;;;;;5017553;28;20335;-65
2022/12/05 05:21:59;;;;;;;1.65;0.80;;;29.10;68.20;;;;;;5020840;28;20095;-65
2022/12/05 05:24:26;;;;;;;2.33;0.85;;;29.50;67.80;;;;;;5012130;28;20022;-65
2022/12/05 05:26:54;;;;;;;2.58;1.10;;;29.90;63.00;;;;;;5010814;28;20025;-64
2022/12/05 05:29:21;;;;;;;4.15;0.88;;;30.00;63.50;;;;;;5018563;28;20644;-64
2022/12/05 05:31:48;;;;;;;1.70;0.80;;;29.90;63.50;;;;;;5010933;28;20030;-64
2022/12/05 05:34:15;;;;;;;2.88;0.90;;;29.90;61.50;;;;;;5013183;28;20038;-65
2022/12/05 05:36:43;;;;;;;2.95;0.77;;;30.00;60.00;;;;;;5023192;28;20088;-65
2022/12/05 05:39:15;;;;;;;4.43;0.70;;;30.30;61.40;;;;;;5011118;28;20052;-65
2022/12/05 05:41:43;;;;;;;2.13;0.60;;;30.80;60.60;;;;;;5011740;28;20046;-65
2022/12/05 05:44:10;;;;;;;3.25;0.60;;;30.90;56.30;;;;;;5008718;28;20033;-65
2022/12/05 05:46:38;;;;;;;2.17;0.55;;;30.80;54.00;;;;;;5011575;28;20766;-65
2022/12/05 05:49:06;;;;;;;4.05;0.80;;;31.00;54.80;;;;;;5011002;28;20036;-65
2022/12/05 05:51:33;;;;;;;2.80;1.00;;;31.20;54.50;;;;;;5017675;28;20013;-65
2022/12/05 05:54:01;;;;;;;2.42;1.00;;;31.40;54.10;;;;;;5015029;28;20493;-65
2022/12/05 05:56:28;;;;;;;5.95;1.17;;;31.70;53.80;;;;;;5014588;28;20014;-65
2022/12/05 05:59:01;;;;;;;4.28;1.60;;;32.10;54.80;;;;;;5006210;28;20509;-65
2022/12/05 06:01:30;;;;;;;3.05;0.70;;;32.10;53.80;;;;;;5016251;28;20474;-65
2022/12/05 06:03:58;;;;;;;1.83;0.82;;;32.00;51.80;;;;;;5017025;28;20034;-64
2022/12/05 06:06:26;;;;;;;3.50;0.95;;;31.90;52.40;;;;;;5011204;28;20046;-65
2022/12/05 06:08:53;;;;;;;3.95;1.30;;;31.80;52.70;;;;;;5008826;28;20026;-65
2022/12/05 06:11:24;;;;;;;3.92;0.95;;;31.50;54.90;;;;;;5007646;28;20032;-64
2022/12/05 06:13:51;;;;;;;4.63;1.30;;;31.30;57.30;;;;;;5017857;28;20040;-65
2022/12/05 06:16:20;;;;;;;9.77;1.45;;;31.30;57.50;;;;;;5012264;28;20026;-65
2022/12/05 06:18:48;;;;;;;4.70;1.15;;;31.40;59.20;;;;;;5010737;28;20059;-65
2022/12/05 06:21:16;;;;;;;3.10;1.30;;;31.30;58.90;;;;;;5017161;28;20025;-65
2022/12/05 06:23:44;;;;;;;5.13;1.60;;;31.20;60.30;;;;;;5009774;28;20034;-65
2022/12/05 06:26:14;;;;;;;3.38;1.10;;;31.10;60.70;;;;;;5007669;28;20088;-64
2022/12/05 06:28:41;;;;;;;5.00;1.55;;;31.10;60.90;;;;;;5008898;28;20037;-64
2022/12/05 06:31:15;;;;;;;6.93;1.42;;;30.80;61.40;;;;;;5009534;28;20030;-64
2022/12/05 06:33:42;;;;;;;4.50;1.23;;;30.60;63.00;;;;;;5016750;28;20048;-65
2022/12/05 06:36:20;;;;;;;6.53;1.85;;;30.30;65.10;;;;;;5000211;28;20044;-64
2022/12/05 06:38:48;;;;;;;6.47;1.70;;;30.20;64.80;;;;;;5009390;28;20426;-65
2022/12/05 06:41:18;;;;;;;6.18;1.52;;;30.40;64.40;;;;;;5017877;28;20036;-65
2022/12/05 06:43:45;;;;;;;8.60;1.23;;;30.80;60.00;;;;;;5014654;28;20037;-64
2022/12/05 06:46:14;;;;;;;12.10;3.15;;;31.10;59.80;;;;;;5022232;28;20083;-65
2022/12/05 06:48:41;;;;;;;2.63;1.10;;;31.60;58.80;;;;;;5013579;28;20030;-65
2022/12/05 06:51:11;;;;;;;4.22;1.13;;;31.80;58.90;;;;;;5007748;28;20100;-65
2022/12/05 06:53:38;;;;;;;7.72;1.60;;;31.80;59.70;;;;;;5007657;28;20120;-65
2022/12/05 06:56:15;;;;;;;5.28;1.23;;;31.90;59.60;;;;;;5010147;28;20112;-64
2022/12/05 06:58:47;;;;;;;12.20;1.42;;;31.60;58.30;;;;;;5007609;28;20025;-65
2022/12/05 07:01:38;;;;;;;8.05;2.25;;;31.40;58.50;;;;;;5006288;28;20422;-65
2022/12/05 07:04:26;;;;;;;5.18;1.50;;;31.00;58.20;;;;;;5006639;28;20034;-65
2022/12/05 07:06:55;;;;;;;5.60;1.50;;;30.70;59.30;;;;;;5008996;28;20395;-65
2022/12/05 07:09:44;;;;;;;8.07;1.50;;;30.40;60.00;;;;;;5007889;28;20113;-65
2022/12/05 07:12:13;;;;;;;5.13;1.40;;;30.10;60.40;;;;;;5007196;28;20034;-65
2022/12/05 07:14:40;;;;;;;6.95;1.35;;;29.90;61.90;;;;;;5009497;28;20499;-65
2022/12/05 07:17:08;;;;;;;10.40;1.50;;;29.70;63.30;;;;;;5010829;28;20026;-66
2022/12/05 07:19:35;;;;;;;4.72;1.52;;;29.50;63.80;;;;;;5022059;28;20108;-65
2022/12/05 07:22:03;;;;;;;5.65;1.40;;;29.40;63.90;;;;;;5009679;28;20034;-66
2022/12/05 07:24:30;;;;;;;5.75;1.30;;;29.20;64.00;;;;;;5009422;28;20029;-65
2022/12/05 07:26:57;;;;;;;9.30;1.58;;;29.10;64.30;;;;;;5010692;28;20026;-66
2022/12/05 07:29:24;;;;;;;7.70;1.65;;;29.00;65.00;;;;;;5009864;28;20379;-66
2022/12/05 07:31:54;;;;;;;6.05;1.40;;;28.80;65.00;;;;;;5010120;28;20069;-65
2022/12/05 07:34:21;;;;;;;4.68;1.52;;;28.70;66.00;;;;;;4998646;28;20084;-65
2022/12/05 07:36:48;;;;;;;5.68;1.38;;;28.60;66.60;;;;;;4990824;28;20072;-66
2022/12/05 07:39:15;;;;;;;6.43;1.90;;;28.50;66.30;;;;;;4990565;28;20434;-66
2022/12/05 07:41:43;;;;;;;7.43;1.40;;;28.40;66.70;;;;;;5003115;28;20032;-65
2022/12/05 07:44:12;;;;;;;5.07;1.38;;;28.30;66.90;;;;;;5009576;28;20320;-65
2022/12/05 07:46:40;;;;;;;5.50;1.65;;;28.20;67.60;;;;;;5009490;28;20026;-66
2022/12/05 07:49:07;;;;;;;2.30;1.15;;;28.10;68.00;;;;;;5001205;28;20042;-66
2022/12/05 07:51:35;;;;;;;5.63;1.30;;;28.10;68.70;;;;;;4998754;28;20534;-65
2022/12/05 07:54:03;;;;;;;7.22;2.17;;;28.00;69.50;;;;;;5007461;28;20088;-66
2022/12/05 07:56:30;;;;;;;3.42;1.40;;;28.00;69.80;;;;;;5007455;28;20030;-66
2022/12/05 07:58:57;;;;;;;6.25;1.60;;;28.00;69.70;;;;;;4988331;28;20129;-65
2022/12/05 08:01:28;;;;;;;5.88;1.73;;;27.90;70.30;;;;;;5004357;28;20025;-65
2022/12/05 08:03:57;;;;;;;6.05;1.70;;;27.80;70.70;;;;;;5007136;28;20069;-65
2022/12/05 08:06:29;;;;;;;7.40;1.70;;;27.70;71.80;;;;;;5007387;28;20364;-66
2022/12/05 08:08:56;;;;;;;7.95;1.50;;;27.70;71.40;;;;;;5007364;28;20030;-65
2022/12/05 08:11:27;;;;;;;8.50;2.95;;;27.70;71.90;;;;;;5006745;28;20487;-65
2022/12/05 08:13:55;;;;;;;7.22;2.13;;;27.60;73.40;;;;;;5006848;28;20669;-65
2022/12/05 08:16:25;;;;;;;6.43;1.42;;;27.60;75.60;;;;;;5006749;28;20034;-65
2022/12/05 08:18:57;;;;;;;9.60;1.83;;;27.50;76.60;;;;;;5007220;28;20030;-65
2022/12/05 08:21:24;;;;;;;9.75;1.63;;;27.40;74.50;;;;;;5006665;28;20018;-65
2022/12/05 08:23:52;;;;;;;9.90;1.55;;;27.30;75.40;;;;;;5007044;28;20307;-65
2022/12/05 08:26:25;;;;;;;6.38;1.90;;;27.20;76.40;;;;;;5006831;28;20053;-66
2022/12/05 08:28:55;;;;;;;6.38;1.58;;;27.20;77.20;;;;;;5006742;28;20037;-66
2022/12/05 08:31:24;;;;;;;9.55;2.38;;;27.10;78.10;;;;;;5006327;28;20037;-64
2022/12/05 08:33:52;;;;;;;6.95;1.88;;;27.00;78.80;;;;;;5005894;28;20026;-64
2022/12/05 08:36:20;;;;;;;12.25;2.60;;;26.80;79.80;;;;;;5008353;28;20080;-64
2022/12/05 08:38:47;;;;;;;11.00;1.60;;;26.60;80.40;;;;;;5010929;28;20644;-65
2022/12/05 08:41:17;;;;;;;8.60;2.20;;;26.50;81.60;;;;;;5010192;28;20030;-64
2022/12/05 08:43:44;;;;;;;9.48;2.30;;;26.40;82.80;;;;;;5010845;28;20033;-65
2022/12/05 08:46:12;;;;;;;17.95;3.10;;;26.20;83.40;;;;;;5010504;28;20026;-64
2022/12/05 08:48:40;;;;;;;4.80;1.63;;;26.10;84.30;;;;;;5010047;28;20430;-63
2022/12/05 08:51:09;;;;;;;8.15;2.25;;;25.90;85.40;;;;;;5010390;28;20180;-65
2022/12/05 08:53:38;;;;;;;7.78;2.70;;;25.80;86.40;;;;;;5010605;28;20034;-65
2022/12/05 08:56:07;;;;;;;8.02;2.20;;;25.70;88.70;;;;;;5009752;28;20444;-64
2022/12/05 08:58:35;;;;;;;12.05;3.13;;;25.50;90.00;;;;;;5010473;28;20451;-63
2022/12/05 09:01:08;;;;;;;9.43;2.40;;;25.40;90.90;;;;;;5009949;28;20026;-63
2022/12/05 09:03:36;;;;;;;8.68;2.33;;;25.10;91.30;;;;;;5010101;28;20037;-65
2022/12/05 09:06:28;;;;;;;7.88;1.83;;;25.00;91.10;;;;;;5010300;28;20034;-65
2022/12/05 09:09:03;;;;;;;8.32;2.80;;;24.90;91.60;;;;;;5009577;28;20037;-64
2022/12/05 09:11:34;;;;;;;13.10;2.30;;;24.80;92.60;;;;;;5010793;28;20413;-64
2022/12/05 09:14:02;;;;;;;7.72;1.98;;;24.70;92.40;;;;;;5010614;28;20042;-64
2022/12/05 09:16:31;;;;;;;9.13;1.88;;;24.60;92.50;;;;;;5010170;28;20475;-64
2022/12/05 09:18:59;;;;;;;14.60;2.55;;;24.40;93.10;;;;;;5010631;28;20487;-65
2022/12/05 09:21:29;;;;;;;10.05;1.73;;;24.30;93.40;;;;;;5010065;28;20030;-65
2022/12/05 09:23:59;;;;;;;10.18;2.13;;;24.10;93.80;;;;;;5009699;28;20033;-66
2022/12/05 09:26:29;;;;;;;5.95;2.05;;;24.10;94.20;;;;;;5009489;28;20022;-66
2022/12/05 09:28:57;;;;;;;6.93;2.10;;;23.90;95.60;;;;;;5009683;28;20034;-65
2022/12/05 09:31:26;;;;;;;6.85;2.33;;;23.70;97.20;;;;;;5009241;28;20540;-64
2022/12/05 09:33:54;;;;;;;6.45;2.50;;;23.40;98.60;;;;;;5009466;28;20118;-64
2022/12/05 09:36:27;;;;;;;7.45;1.88;;;23.20;99.40;;;;;;5009336;28;20034;-66
2022/12/05 09:38:58;;;;;;;7.32;2.38;;;23.00;99.90;;;;;;5008495;28;20403;-66
2022/12/05 09:44:48;;;;;;;13.48;2.88;;;22.60;99.90;;;;;;5005450;28;21758;-65
2022/12/05 09:47:22;;;;;;;7.18;1.92;;;22.50;99.90;;;;;;5004403;28;20022;-65
2022/12/05 09:49:55;;;;;;;8.20;2.70;;;22.50;99.90;;;;;;5004207;28;20132;-64
2022/12/05 09:52:30;;;;;;;7.63;2.03;;;22.40;99.90;;;;;;5006155;28;20617;-68
2022/12/05 09:55:01;;;;;;;;;;;22.30;99.90;;;;;;5009374;28;20041;-64
2022/12/05 09:57:37;;;;;;;5.75;2.25;;;22.30;99.90;;;;;;5007229;28;19910;-69
2022/12/05 10:00:07;;;;;;;8.63;2.08;;;22.20;99.90;;;;;;5011304;28;20030;-70
2022/12/05 10:02:41;;;;;;;7.30;2.50;;;22.20;99.90;;;;;;5014378;28;20541;-69
2022/12/05 10:05:26;;;;;;;5.82;2.20;;;22.10;99.90;;;;;;5010678;28;20082;-67
2022/12/05 10:08:23;;;;;;;9.32;2.95;;;22.10;99.90;;;;;;5012639;28;20033;-68
2022/12/05 10:11:11;;;;;;;12.90;2.17;;;22.10;99.90;;;;;;5002117;28;20526;-70
2022/12/05 10:14:02;;;;;;;6.80;2.60;;;22.00;99.90;;;;;;5007879;28;20088;-67
2022/12/05 10:16:31;;;;;;;7.47;2.22;;;21.90;99.90;;;;;;5007404;28;20430;-68
2022/12/05 10:19:18;;;;;;;7.63;2.50;;;21.70;99.90;;;;;;5014744;28;20755;-68
2022/12/05 10:21:57;;;;;;;6.63;2.47;;;21.50;99.90;;;;;;5008861;28;20513;-68
2022/12/05 10:24:50;;;;;;;7.15;2.63;;;21.30;99.90;;;;;;5011377;28;20146;-67
2022/12/05 10:27:35;;;;;;;14.70;3.75;;;21.10;99.90;;;;;;5011876;28;20092;-68
2022/12/05 10:30:23;;;;;;;8.95;2.75;;;21.00;99.90;;;;;;5006450;28;20105;-68
2022/12/05 10:32:55;;;;;;;5.57;2.60;;;20.80;99.90;;;;;;5010340;28;20076;-66
2022/12/05 10:35:26;;;;;;;8.98;2.97;;;20.80;99.90;;;;;;5007690;28;20211;-67
2022/12/05 10:37:58;;;;;;;8.07;3.17;;;20.70;99.90;;;;;;5007934;28;20029;-69
2022/12/05 10:40:48;;;;;;;11.10;3.33;;;20.70;99.90;;;;;;4992569;28;20058;-68
2022/12/05 10:43:24;;;;;;;13.43;4.30;;;20.70;99.90;;;;;;5007543;28;20039;-69
2022/12/05 10:45:51;;;;;;;9.02;3.75;;;20.70;99.90;;;;;;5012064;28;20026;-68
2022/12/05 10:48:21;;;;;;;8.13;2.55;;;20.70;99.90;;;;;;5001485;28;20032;-68
2022/12/05 10:50:51;;;;;;;16.55;3.17;;;20.70;99.90;;;;;;5006871;28;20509;-71
2022/12/05 10:53:28;;;;;;;11.95;3.05;;;20.70;99.90;;;;;;5017587;28;20068;-63
2022/12/05 10:55:55;;;;;;;12.20;3.65;;;20.70;99.90;;;;;;5008032;28;20783;-64
2022/12/05 10:58:28;;;;;;;6.82;2.67;;;20.70;99.90;;;;;;5010095;28;20186;-64
2022/12/05 11:00:58;;;;;;;7.40;2.90;;;20.80;99.90;;;;;;5009858;28;20025;-65
2022/12/05 11:03:37;;;;;;;7.00;3.13;;;20.80;99.90;;;;;;5017041;28;20498;-64
2022/12/05 11:06:26;;;;;;;8.02;2.05;;;20.80;99.90;;;;;;5009055;28;20080;-61
2022/12/05 11:08:59;;;;;;;8.77;2.03;;;20.80;99.90;;;;;;5014394;28;20021;-63
2022/12/05 11:11:28;;;;;;;6.57;3.38;;;20.80;99.90;;;;;;5008202;28;20024;-64
2022/12/05 11:14:17;;;;;;;8.73;2.58;;;20.80;99.90;;;;;;5007235;28;20438;-64
2022/12/05 11:16:53;;;;;;;13.65;2.92;;;20.70;99.90;;;;;;4999802;28;20037;-65
2022/12/05 11:19:33;;;;;;;9.85;2.58;;;20.70;99.90;;;;;;5010873;28;20033;-64
2022/12/05 11:22:02;;;;;;;13.00;3.25;;;20.40;99.90;;;;;;5021886;28;20046;-64
2022/12/05 11:24:37;;;;;;;9.82;3.40;;;20.20;99.90;;;;;;5014550;28;20026;-64
2022/12/05 11:27:31;;;;;;;9.43;3.90;;;20.00;99.90;;;;;;5016776;28;20545;-64
2022/12/05 11:30:11;;;;;;;16.40;4.47;;;19.90;99.90;;;;;;5008177;28;20080;-64
2022/12/05 11:32:39;;;;;;;15.68;4.72;;;19.80;99.90;;;;;;5021011;28;20025;-64
2022/12/05 11:35:12;;;;;;;23.17;5.00;;;19.70;99.90;;;;;;5021381;28;20136;-64
2022/12/05 11:37:51;;;;;;;16.50;5.63;;;19.70;99.90;;;;;;5014100;28;20018;-64
2022/12/05 11:40:50;;;;;;;16.67;6.03;;;19.60;99.90;;;;;;5010793;28;20490;-63
2022/12/05 11:43:49;;;;;;;19.17;6.50;;;19.50;99.90;;;;;;5010704;28;20041;-63
2022/12/05 11:46:32;;;;;;;18.63;7.32;;;19.50;99.90;;;;;;4992459;28;20043;-63
2022/12/05 11:49:22;;;;;;;17.05;6.95;;;19.40;99.90;;;;;;5006019;28;20169;-64
2022/12/05 11:52:01;;;;;;;23.17;7.95;;;19.40;99.90;;;;;;5005883;28;21486;-64
2022/12/05 11:54:51;;;;;;;17.23;7.45;;;19.40;99.90;;;;;;5013828;28;20053;-64
2022/12/05 11:57:43;;;;;;;22.42;8.10;;;19.30;99.90;;;;;;5010823;28;20033;-64
2022/12/05 12:00:30;;;;;;;25.85;8.30;;;19.30;99.90;;;;;;5010347;28;20037;-65
2022/12/05 12:03:03;;;;;;;27.17;9.00;;;19.20;99.90;;;;;;5013373;28;20045;-64
2022/12/05 12:05:51;;;;;;;37.10;8.90;;;19.20;99.90;;;;;;5015001;28;20080;-64
2022/12/05 12:08:38;;;;;;;28.70;9.88;;;19.10;99.90;;;;;;5009910;28;20025;-63
2022/12/05 12:11:28;;;;;;;29.80;10.45;;;19.10;99.90;;;;;;5014063;28;20053;-63
2022/12/05 12:14:08;;;;;;;19.00;8.70;;;19.10;99.90;;;;;;5013724;28;20060;-63
2022/12/05 12:17:06;;;;;;;22.60;9.40;;;19.00;99.90;;;;;;4999530;28;20018;-62
2022/12/05 12:19:38;;;;;;;25.17;9.25;;;19.00;99.90;;;;;;5009523;28;20096;-63
2022/12/05 12:22:27;;;;;;;21.40;10.15;;;19.00;99.90;;;;;;5008753;28;20156;-63
2022/12/05 12:25:06;;;;;;;41.13;10.65;;;19.00;99.90;;;;;;5008926;28;20029;-64
2022/12/05 12:28:00;;;;;;;28.65;11.23;;;19.00;99.90;;;;;;4989886;28;20026;-71
2022/12/05 12:30:51;;;;;;;28.52;11.70;;;19.00;99.90;;;;;;5027760;28;20030;-63
2022/12/05 12:33:33;;;;;;;36.92;11.63;;;19.00;99.90;;;;;;5013417;28;20038;-63
2022/12/05 12:36:30;;;;;;;32.53;10.60;;;18.90;99.90;;;;;;4924320;28;2467376;-63
2022/12/05 12:39:21;;;;;;;26.50;10.35;;;18.90;99.90;;;;;;5006892;28;20084;-64
2022/12/05 12:42:15;;;;;;;30.67;11.10;;;18.90;99.90;;;;;;5009311;28;20058;-63
2022/12/05 12:45:09;;;;;;;38.88;14.20;;;18.90;99.90;;;;;;4994738;28;20387;-63
2022/12/05 12:48:08;;;;;;;29.03;10.67;;;18.90;99.90;;;;;;4996177;28;20030;-64
2022/12/05 12:50:41;;;;;;;25.20;11.73;;;18.90;99.90;;;;;;4990729;28;20357;-63
2022/12/05 12:53:35;;;;;;;21.55;9.50;;;18.90;99.90;;;;;;5009218;28;20026;-63
2022/12/05 12:56:25;;;;;;;27.35;10.70;;;18.80;99.90;;;;;;5000571;28;20026;-65
2022/12/05 12:58:58;;;;;;;26.15;9.90;;;18.80;99.90;;;;;;5004748;28;20026;-64
2022/12/05 13:01:53;;;;;;;24.63;9.68;;;18.80;99.90;;;;;;5005817;28;20486;-63
2022/12/05 13:04:32;;;;;;;28.95;10.38;;;18.80;99.90;;;;;;5005398;28;20112;-62
2022/12/05 13:07:07;;;;;;;25.70;10.90;;;18.70;99.90;;;;;;5005903;28;20042;-63
2022/12/05 13:09:55;;;;;;;29.85;10.57;;;18.70;99.90;;;;;;5005492;28;20052;-63
2022/12/05 13:12:32;;;;;;;25.08;11.50;;;18.70;99.90;;;;;;4999133;28;20054;-63
2022/12/05 13:15:05;;;;;;;34.10;12.05;;;18.70;99.90;;;;;;5001656;28;20482;-63
2022/12/05 13:17:32;;;;;;;25.13;12.02;;;18.70;99.90;;;;;;5006135;28;20088;-63
2022/12/05 13:20:00;;;;;;;28.95;11.30;;;18.70;99.90;;;;;;5004622;28;20053;-63
2022/12/05 13:22:28;;;;;;;32.65;13.43;;;18.80;99.90;;;;;;5003582;28;20045;-63
2022/12/05 13:24:56;;;;;;;29.45;12.73;;;18.80;99.90;;;;;;5008404;28;20114;-63
2022/12/05 13:27:28;;;;;;;29.90;14.52;;;18.80;99.90;;;;;;5009307;28;20617;-62
2022/12/05 13:30:00;;;;;;;32.10;12.93;;;18.80;99.90;;;;;;5007909;28;20030;-63
2022/12/05 13:32:39;;;;;;;27.38;12.45;;;18.80;99.90;;;;;;5009099;28;20037;-63